sensor_id;sensor_type;location;lat;lon;timestamp;pressure;altitude;pressure_sealevel;temperature
15360;BMP280;7779;49.596;11.070;2023-07-20T00:01:15;97954.06;;;21.39
15360;BMP280;7779;49.596;11.070;2023-07-20T00:03:41;97956.63;;;21.39
15360;BMP280;7779;49.596;11.070;2023-07-20T00:06:07;97956.63;;;21.39
15360;BMP280;7779;49.596;11.070;2023-07-20T00:08:33;97945.53;;;21.36
15360;BMP280;7779;49.596;11.070;2023-07-20T00:10:58;97958.28;;;21.39
15360;BMP280;7779;49.596;11.070;2023-07-20T00:13:24;97952.34;;;21.38
15360;BMP280;7779;49.596;11.070;2023-07-20T00:15:51;97954.03;;;21.38
15360;BMP280;7779;49.596;11.070;2023-07-20T00:18:17;97948.09;;;21.36
15360;BMP280;7779;49.596;11.070;2023-07-20T00:20:43;97942.13;;;21.34
15360;BMP280;7779;49.596;11.070;2023-07-20T00:23:08;97948.88;;;21.30
15360;BMP280;7779;49.596;11.070;2023-07-20T00:25:34;97950.56;;;21.27
15360;BMP280;7779;49.596;11.070;2023-07-20T00:28:01;97946.28;;;21.24
15360;BMP280;7779;49.596;11.070;2023-07-20T00:30:27;97953.03;;;21.22
15360;BMP280;7779;49.596;11.070;2023-07-20T00:32:53;97959.81;;;21.19
15360;BMP280;7779;49.596;11.070;2023-07-20T00:35:18;97952.16;;;21.16
15360;BMP280;7779;49.596;11.070;2023-07-20T00:37:44;97955.50;;;21.12
15360;BMP280;7779;49.596;11.070;2023-07-20T00:40:10;97955.47;;;21.09
15360;BMP280;7779;49.596;11.070;2023-07-20T00:42:36;97938.47;;;21.05
15360;BMP280;7779;49.596;11.070;2023-07-20T00:45:02;97932.47;;;21.00
15360;BMP280;7779;49.596;11.070;2023-07-20T00:47:28;97923.09;;;20.98
15360;BMP280;7779;49.596;11.070;2023-07-20T00:49:54;97928.16;;;20.93
15360;BMP280;7779;49.596;11.070;2023-07-20T00:52:23;97934.09;;;20.91
15360;BMP280;7779;49.596;11.070;2023-07-20T00:54:52;97944.22;;;20.88
15360;BMP280;7779;49.596;11.070;2023-07-20T00:57:19;97938.28;;;20.87
15360;BMP280;7779;49.596;11.070;2023-07-20T00:59:45;97939.97;;;20.87
15360;BMP280;7779;49.596;11.070;2023-07-20T01:02:11;97945.06;;;20.88
15360;BMP280;7779;49.596;11.070;2023-07-20T01:04:37;97944.25;;;20.89
15360;BMP280;7779;49.596;11.070;2023-07-20T01:07:24;97945.09;;;20.90
15360;BMP280;7779;49.596;11.070;2023-07-20T01:10:08;97946.81;;;20.89
15360;BMP280;7779;49.596;11.070;2023-07-20T01:12:46;97944.22;;;20.88
15360;BMP280;7779;49.596;11.070;2023-07-20T01:15:13;97948.44;;;20.84
15360;BMP280;7779;49.596;11.070;2023-07-20T01:17:39;97947.63;;;20.85
15360;BMP280;7779;49.596;11.070;2023-07-20T01:20:08;97946.75;;;20.83
15360;BMP280;7779;49.596;11.070;2023-07-20T01:26:17;97933.09;;;20.78
15360;BMP280;7779;49.596;11.070;2023-07-20T01:32:06;97939.75;;;20.66
15360;BMP280;7779;49.596;11.070;2023-07-20T01:34:36;97948.22;;;20.64
15360;BMP280;7779;49.596;11.070;2023-07-20T01:37:03;97943.97;;;20.63
15360;BMP280;7779;49.596;11.070;2023-07-20T01:39:32;97946.50;;;20.63
15360;BMP280;7779;49.596;11.070;2023-07-20T01:41:58;97951.59;;;20.63
15360;BMP280;7779;49.596;11.070;2023-07-20T01:44:24;97946.50;;;20.63
15360;BMP280;7779;49.596;11.070;2023-07-20T01:46:50;97943.13;;;20.64
15360;BMP280;7779;49.596;11.070;2023-07-20T01:49:15;97955.84;;;20.65
15360;BMP280;7779;49.596;11.070;2023-07-20T01:51:41;97953.34;;;20.67
15360;BMP280;7779;49.596;11.070;2023-07-20T01:54:07;97961.88;;;20.70
15360;BMP280;7779;49.596;11.070;2023-07-20T01:56:33;97951.69;;;20.72
15360;BMP280;7779;49.596;11.070;2023-07-20T01:58:59;97947.50;;;20.75
15360;BMP280;7779;49.596;11.070;2023-07-20T02:01:24;97951.75;;;20.77
15360;BMP280;7779;49.596;11.070;2023-07-20T02:03:50;97957.72;;;20.81
15360;BMP280;7779;49.596;11.070;2023-07-20T02:06:16;97951.84;;;20.83
15360;BMP280;7779;49.596;11.070;2023-07-20T02:08:42;97961.22;;;20.89
15360;BMP280;7779;49.596;11.070;2023-07-20T02:11:08;97962.09;;;20.92
15360;BMP280;7779;49.596;11.070;2023-07-20T02:13:35;97963.84;;;20.96
15360;BMP280;7779;49.596;11.070;2023-07-20T02:16:01;97974.06;;;20.99
15360;BMP280;7779;49.596;11.070;2023-07-20T02:18:27;97974.94;;;21.03
15360;BMP280;7779;49.596;11.070;2023-07-20T02:20:53;97978.38;;;21.08
15360;BMP280;7779;49.596;11.070;2023-07-20T02:23:19;97972.47;;;21.10
15360;BMP280;7779;49.596;11.070;2023-07-20T02:25:45;97964.81;;;21.10
15360;BMP280;7779;49.596;11.070;2023-07-20T02:28:15;97975.03;;;21.12
15360;BMP280;7779;49.596;11.070;2023-07-20T02:30:40;97985.22;;;21.09
15360;BMP280;7779;49.596;11.070;2023-07-20T02:33:07;97988.56;;;21.08
15360;BMP280;7779;49.596;11.070;2023-07-20T02:35:33;97987.72;;;21.07
15360;BMP280;7779;49.596;11.070;2023-07-20T02:37:59;97992.81;;;21.07
15360;BMP280;7779;49.596;11.070;2023-07-20T02:40:25;97992.81;;;21.07
15360;BMP280;7779;49.596;11.070;2023-07-20T02:42:50;97992.81;;;21.07
15360;BMP280;7779;49.596;11.070;2023-07-20T02:45:16;97990.25;;;21.06
15360;BMP280;7779;49.596;11.070;2023-07-20T02:47:42;97984.28;;;21.04
15360;BMP280;7779;49.596;11.070;2023-07-20T02:50:08;97985.09;;;21.01
15360;BMP280;7779;49.596;11.070;2023-07-20T02:52:34;97985.09;;;20.98
15360;BMP280;7779;49.596;11.070;2023-07-20T02:55:00;97988.44;;;20.94
15360;BMP280;7779;49.596;11.070;2023-07-20T02:57:26;97985.03;;;20.91
15360;BMP280;7779;49.596;11.070;2023-07-20T02:59:52;97989.22;;;20.87
15360;BMP280;7779;49.596;11.070;2023-07-20T03:02:19;97984.03;;;20.81
15360;BMP280;7779;49.596;11.070;2023-07-20T03:04:44;97985.72;;;20.77
15360;BMP280;7779;49.596;11.070;2023-07-20T03:07:10;97984.78;;;20.72
15360;BMP280;7779;49.596;11.070;2023-07-20T03:09:36;97989.81;;;20.67
15360;BMP280;7779;49.596;11.070;2023-07-20T03:12:01;98002.50;;;20.63
15360;BMP280;7779;49.596;11.070;2023-07-20T03:14:30;97999.88;;;20.58
15360;BMP280;7779;49.596;11.070;2023-07-20T03:16:56;98005.75;;;20.54
15360;BMP280;7779;49.596;11.070;2023-07-20T03:19:22;98002.31;;;20.49
15360;BMP280;7779;49.596;11.070;2023-07-20T03:21:48;98014.13;;;20.47
15360;BMP280;7779;49.596;11.070;2023-07-20T03:24:14;98019.25;;;20.46
15360;BMP280;7779;49.596;11.070;2023-07-20T03:26:39;98020.91;;;20.44
15360;BMP280;7779;49.596;11.070;2023-07-20T03:29:06;98022.59;;;20.45
15360;BMP280;7779;49.596;11.070;2023-07-20T03:31:33;98018.34;;;20.45
15360;BMP280;7779;49.596;11.070;2023-07-20T03:33:58;98020.94;;;20.47
15360;BMP280;7779;49.596;11.070;2023-07-20T03:36:24;98024.34;;;20.49
15360;BMP280;7779;49.596;11.070;2023-07-20T03:38:51;98024.34;;;20.49
15360;BMP280;7779;49.596;11.070;2023-07-20T03:41:16;98027.75;;;20.51
15360;BMP280;7779;49.596;11.070;2023-07-20T03:43:42;98026.09;;;20.51
15360;BMP280;7779;49.596;11.070;2023-07-20T03:46:08;98026.13;;;20.56
15360;BMP280;7779;49.596;11.070;2023-07-20T03:48:34;98029.56;;;20.58
15360;BMP280;7779;49.596;11.070;2023-07-20T03:51:00;98028.75;;;20.60
15360;BMP280;7779;49.596;11.070;2023-07-20T03:53:26;98030.44;;;20.61
15360;BMP280;7779;49.596;11.070;2023-07-20T03:55:53;98027.06;;;20.62
15360;BMP280;7779;49.596;11.070;2023-07-20T03:58:20;98033.06;;;20.63
15360;BMP280;7779;49.596;11.070;2023-07-20T04:00:49;98034.72;;;20.62
15360;BMP280;7779;49.596;11.070;2023-07-20T04:03:16;98042.41;;;20.64
15360;BMP280;7779;49.596;11.070;2023-07-20T04:05:43;98032.22;;;20.64
15360;BMP280;7779;49.596;11.070;2023-07-20T04:08:10;98048.38;;;20.66
15360;BMP280;7779;49.596;11.070;2023-07-20T04:10:39;98050.09;;;20.70
15360;BMP280;7779;49.596;11.070;2023-07-20T04:13:05;98053.56;;;20.75
15360;BMP280;7779;49.596;11.070;2023-07-20T04:15:31;98055.31;;;20.78
15360;BMP280;7779;49.596;11.070;2023-07-20T04:17:57;98055.38;;;20.84
15360;BMP280;7779;49.596;11.070;2023-07-20T04:20:24;98054.59;;;20.90
15360;BMP280;7779;49.596;11.070;2023-07-20T04:22:50;98059.75;;;20.96
15360;BMP280;7779;49.596;11.070;2023-07-20T04:25:19;98064.06;;;21.01
15360;BMP280;7779;49.596;11.070;2023-07-20T04:27:45;98065.81;;;21.07
15360;BMP280;7779;49.596;11.070;2023-07-20T04:30:12;98058.25;;;21.11
15360;BMP280;7779;49.596;11.070;2023-07-20T04:32:38;98063.38;;;21.17
15360;BMP280;7779;49.596;11.070;2023-07-20T04:38:14;98057.53;;;21.24
15360;BMP280;7779;49.596;11.070;2023-07-20T04:40:45;98056.72;;;21.28
15360;BMP280;7779;49.596;11.070;2023-07-20T04:43:12;98061.00;;;21.32
15360;BMP280;7779;49.596;11.070;2023-07-20T04:45:38;98063.66;;;21.39
15360;BMP280;7779;49.596;11.070;2023-07-20T04:48:10;98062.91;;;21.49
15360;BMP280;7779;49.596;11.070;2023-07-20T04:50:45;98069.00;;;21.66
15360;BMP280;7779;49.596;11.070;2023-07-20T04:53:12;98070.78;;;21.74
15360;BMP280;7779;49.596;11.070;2023-07-20T04:55:40;98075.13;;;21.84
15360;BMP280;7779;49.596;11.070;2023-07-20T04:58:07;98067.53;;;21.92
15360;BMP280;7779;49.596;11.070;2023-07-20T05:00:35;98066.75;;;21.97
15360;BMP280;7779;49.596;11.070;2023-07-20T05:03:01;98064.22;;;22.01
15360;BMP280;7779;49.596;11.070;2023-07-20T05:05:26;98067.63;;;22.05
15360;BMP280;7779;49.596;11.070;2023-07-20T05:07:52;98077.00;;;22.07
15360;BMP280;7779;49.596;11.070;2023-07-20T05:10:18;98077.06;;;22.13
15360;BMP280;7779;49.596;11.070;2023-07-20T05:12:44;98075.44;;;22.17
15360;BMP280;7779;49.596;11.070;2023-07-20T05:15:10;98073.75;;;22.23
15360;BMP280;7779;49.596;11.070;2023-07-20T05:17:37;98080.63;;;22.32
15360;BMP280;7779;49.596;11.070;2023-07-20T05:20:05;98075.56;;;22.40
15360;BMP280;7779;49.596;11.070;2023-07-20T05:22:31;98078.19;;;22.51
15360;BMP280;7779;49.596;11.070;2023-07-20T05:24:57;98073.97;;;22.63
15360;BMP280;7779;49.596;11.070;2023-07-20T05:27:23;98071.50;;;22.75
15360;BMP280;7779;49.596;11.070;2023-07-20T05:29:48;98081.75;;;22.84
15360;BMP280;7779;49.596;11.070;2023-07-20T05:32:14;98078.41;;;22.89
15360;BMP280;7779;49.596;11.070;2023-07-20T05:34:40;98084.41;;;22.96
15360;BMP280;7779;49.596;11.070;2023-07-20T05:37:06;98084.41;;;23.05
15360;BMP280;7779;49.596;11.070;2023-07-20T05:39:34;98072.53;;;23.13
15360;BMP280;7779;49.596;11.070;2023-07-20T05:42:00;98074.25;;;23.16
15360;BMP280;7779;49.596;11.070;2023-07-20T05:44:26;98077.66;;;23.18
15360;BMP280;7779;49.596;11.070;2023-07-20T05:46:51;98071.69;;;23.18
15360;BMP280;7779;49.596;11.070;2023-07-20T05:49:17;98075.97;;;23.17
15360;BMP280;7779;49.596;11.070;2023-07-20T05:51:43;98071.69;;;23.18
15360;BMP280;7779;49.596;11.070;2023-07-20T05:54:09;98075.97;;;23.17
15360;BMP280;7779;49.596;11.070;2023-07-20T05:56:34;98075.97;;;23.17
15360;BMP280;7779;49.596;11.070;2023-07-20T05:59:00;98078.50;;;23.16
15360;BMP280;7779;49.596;11.070;2023-07-20T06:01:26;98085.34;;;23.15
15360;BMP280;7779;49.596;11.070;2023-07-20T06:03:53;98077.66;;;23.15
15360;BMP280;7779;49.596;11.070;2023-07-20T06:06:19;98080.22;;;23.20
15360;BMP280;7779;49.596;11.070;2023-07-20T06:08:45;98081.94;;;23.31
15360;BMP280;7779;49.596;11.070;2023-07-20T06:11:11;98085.41;;;23.45
15360;BMP280;7779;49.596;11.070;2023-07-20T06:13:37;98081.19;;;23.62
15360;BMP280;7779;49.596;11.070;2023-07-20T06:16:03;98077.78;;;23.78
15360;BMP280;7779;49.596;11.070;2023-07-20T06:18:29;98078.66;;;23.96
15360;BMP280;7779;49.596;11.070;2023-07-20T06:20:56;98088.88;;;24.14
15360;BMP280;7779;49.596;11.070;2023-07-20T06:23:22;98084.63;;;24.35
15360;BMP280;7779;49.596;11.070;2023-07-20T06:25:48;98082.00;;;24.57
15360;BMP280;7779;49.596;11.070;2023-07-20T06:28:14;98073.41;;;24.79
15360;BMP280;7779;49.596;11.070;2023-07-20T06:30:40;98076.78;;;25.02
15360;BMP280;7779;49.596;11.070;2023-07-20T06:33:06;98077.53;;;25.24
15360;BMP280;7779;49.596;11.070;2023-07-20T06:35:34;98075.69;;;25.46
15360;BMP280;7779;49.596;11.070;2023-07-20T06:37:59;98079.03;;;25.62
15360;BMP280;7779;49.596;11.070;2023-07-20T06:40:26;98072.94;;;25.75
15360;BMP280;7779;49.596;11.070;2023-07-20T06:42:52;98076.25;;;25.91
15360;BMP280;7779;49.596;11.070;2023-07-20T06:45:17;98074.44;;;26.01
15360;BMP280;7779;49.596;11.070;2023-07-20T06:47:43;98068.38;;;26.13
15360;BMP280;7779;49.596;11.070;2023-07-20T06:50:10;98070.81;;;26.26
15360;BMP280;7779;49.596;11.070;2023-07-20T06:52:36;98068.16;;;26.39
15360;BMP280;7779;49.596;11.070;2023-07-20T06:55:03;98072.31;;;26.51
15360;BMP280;7779;49.596;11.070;2023-07-20T06:57:29;98066.19;;;26.61
15360;BMP280;7779;49.596;11.070;2023-07-20T06:59:55;98062.66;;;26.69
15360;BMP280;7779;49.596;11.070;2023-07-20T07:02:21;98072.88;;;26.75
15360;BMP280;7779;49.596;11.070;2023-07-20T07:04:46;98069.44;;;26.76
15360;BMP280;7779;49.596;11.070;2023-07-20T07:07:15;98074.53;;;26.79
15360;BMP280;7779;49.596;11.070;2023-07-20T07:09:42;98066.81;;;26.83
15360;BMP280;7779;49.596;11.070;2023-07-20T07:12:08;98064.19;;;26.88
15360;BMP280;7779;49.596;11.070;2023-07-20T07:14:34;98061.53;;;26.95
15360;BMP280;7779;49.596;11.070;2023-07-20T07:17:00;98053.72;;;27.03
15360;BMP280;7779;49.596;11.070;2023-07-20T07:19:26;98051.06;;;27.09
15360;BMP280;7779;49.596;11.070;2023-07-20T07:21:52;98051.00;;;27.13
15360;BMP280;7779;49.596;11.070;2023-07-20T07:24:18;98048.41;;;27.14
15360;BMP280;7779;49.596;11.070;2023-07-20T07:26:43;98057.00;;;27.15
15360;BMP280;7779;49.596;11.070;2023-07-20T07:29:09;98051.88;;;27.13
15360;BMP280;7779;49.596;11.070;2023-07-20T07:31:35;98048.41;;;27.14
15360;BMP280;7779;49.596;11.070;2023-07-20T07:34:02;98050.06;;;27.18
15360;BMP280;7779;49.596;11.070;2023-07-20T07:36:28;98053.50;;;27.20
15360;BMP280;7779;49.596;11.070;2023-07-20T07:38:54;98053.50;;;27.19
15360;BMP280;7779;49.596;11.070;2023-07-20T07:41:20;98058.59;;;27.22
15360;BMP280;7779;49.596;11.070;2023-07-20T07:43:46;98040.47;;;27.29
15360;BMP280;7779;49.596;11.070;2023-07-20T07:46:12;98054.91;;;27.42
15360;BMP280;7779;49.596;11.070;2023-07-20T07:48:39;98058.25;;;27.50
15360;BMP280;7779;49.596;11.070;2023-07-20T07:51:04;98053.06;;;27.53
15360;BMP280;7779;49.596;11.070;2023-07-20T07:53:30;98057.31;;;27.54
15360;BMP280;7779;49.596;11.070;2023-07-20T07:55:56;98054.75;;;27.54
15360;BMP280;7779;49.596;11.070;2023-07-20T07:58:21;98058.13;;;27.56
15360;BMP280;7779;49.596;11.070;2023-07-20T08:00:47;98049.59;;;27.52
15360;BMP280;7779;49.596;11.070;2023-07-20T08:03:13;98055.69;;;27.49
15360;BMP280;7779;49.596;11.070;2023-07-20T08:05:39;98060.81;;;27.50
15360;BMP280;7779;49.596;11.070;2023-07-20T08:08:05;98058.13;;;27.56
15360;BMP280;7779;49.596;11.070;2023-07-20T08:10:31;98061.50;;;27.61
15360;BMP280;7779;49.596;11.070;2023-07-20T08:12:57;98061.50;;;27.61
15360;BMP280;7779;49.596;11.070;2023-07-20T08:15:23;98058.94;;;27.59
15360;BMP280;7779;49.596;11.070;2023-07-20T08:17:49;98054.72;;;27.57
15360;BMP280;7779;49.596;11.070;2023-07-20T08:20:17;98057.31;;;27.54
15360;BMP280;7779;49.596;11.070;2023-07-20T08:22:43;98059.03;;;27.53
15360;BMP280;7779;49.596;11.070;2023-07-20T08:25:10;98052.13;;;27.57
15360;BMP280;7779;49.596;11.070;2023-07-20T08:27:36;98052.84;;;27.65
15360;BMP280;7779;49.596;11.070;2023-07-20T08:30:03;98052.72;;;27.74
15360;BMP280;7779;49.596;11.070;2023-07-20T08:32:30;98057.75;;;27.80
15360;BMP280;7779;49.596;11.070;2023-07-20T08:34:55;98053.53;;;27.77
15360;BMP280;7779;49.596;11.070;2023-07-20T08:37:22;98054.47;;;27.72
15360;BMP280;7779;49.596;11.070;2023-07-20T08:39:48;98056.31;;;27.64
15360;BMP280;7779;49.596;11.070;2023-07-20T08:42:15;98053.00;;;27.54
15360;BMP280;7779;49.596;11.070;2023-07-20T08:44:42;98065.13;;;27.48
15360;BMP280;7779;49.596;11.070;2023-07-20T08:47:10;98063.50;;;27.38
15360;BMP280;7779;49.596;11.070;2023-07-20T08:49:39;98064.50;;;27.30
15360;BMP280;7779;49.596;11.070;2023-07-20T08:52:05;98065.44;;;27.24
15360;BMP280;7779;49.596;11.070;2023-07-20T08:54:31;98063.69;;;27.26
15360;BMP280;7779;49.596;11.070;2023-07-20T08:57:04;98063.63;;;27.29
15360;BMP280;7779;49.596;11.070;2023-07-20T08:59:32;98061.13;;;27.28
15360;BMP280;7779;49.596;11.070;2023-07-20T09:02:02;98060.22;;;27.30
15360;BMP280;7779;49.596;11.070;2023-07-20T09:04:27;98060.19;;;27.32
15360;BMP280;7779;49.596;11.070;2023-07-20T09:06:53;98058.47;;;27.32
15360;BMP280;7779;49.596;11.070;2023-07-20T09:09:19;98063.59;;;27.32
15360;BMP280;7779;49.596;11.070;2023-07-20T09:11:49;98055.88;;;27.34
15360;BMP280;7779;49.596;11.070;2023-07-20T09:14:15;98067.00;;;27.34
15360;BMP280;7779;49.596;11.070;2023-07-20T09:16:54;98062.69;;;27.36
15360;BMP280;7779;49.596;11.070;2023-07-20T09:19:21;98056.63;;;27.40
15360;BMP280;7779;49.596;11.070;2023-07-20T09:21:51;98060.03;;;27.45
15360;BMP280;7779;49.596;11.070;2023-07-20T09:24:19;98051.44;;;27.46
15360;BMP280;7779;49.596;11.070;2023-07-20T09:26:48;98065.16;;;27.45
15360;BMP280;7779;49.596;11.070;2023-07-20T09:29:14;98066.88;;;27.46
15360;BMP280;7779;49.596;11.070;2023-07-20T09:32:02;98053.09;;;27.50
15360;BMP280;7779;49.596;11.070;2023-07-20T09:34:33;98057.31;;;27.55
15360;BMP280;7779;49.596;11.070;2023-07-20T09:36:59;98050.31;;;27.63
15360;BMP280;7779;49.596;11.070;2023-07-20T09:39:26;98059.50;;;27.78
15360;BMP280;7779;49.596;11.070;2023-07-20T09:41:52;98052.41;;;27.94
15360;BMP280;7779;49.596;11.070;2023-07-20T09:44:19;98058.13;;;28.11
15360;BMP280;7779;49.596;11.070;2023-07-20T09:46:49;98054.53;;;28.21
15360;BMP280;7779;49.596;11.070;2023-07-20T09:49:17;98051.91;;;28.24
15360;BMP280;7779;49.596;11.070;2023-07-20T09:51:45;98052.84;;;28.20
15360;BMP280;7779;49.596;11.070;2023-07-20T09:54:13;98055.53;;;28.14
15360;BMP280;7779;49.596;11.070;2023-07-20T09:56:40;98055.69;;;28.05
15360;BMP280;7779;49.596;11.070;2023-07-20T09:59:06;98051.44;;;28.00
15360;BMP280;7779;49.596;11.070;2023-07-20T10:01:34;98048.81;;;28.04
15360;BMP280;7779;49.596;11.070;2023-07-20T10:04:03;98050.28;;;28.17
15360;BMP280;7779;49.596;11.070;2023-07-20T10:06:33;98043.16;;;28.34
15360;BMP280;7779;49.596;11.070;2023-07-20T10:09:03;98036.72;;;28.56
15360;BMP280;7779;49.596;11.070;2023-07-20T10:11:36;98032.09;;;28.72
15360;BMP280;7779;49.596;11.070;2023-07-20T10:14:06;98035.31;;;28.83
15360;BMP280;7779;49.596;11.070;2023-07-20T10:16:36;98026.72;;;28.84
15360;BMP280;7779;49.596;11.070;2023-07-20T10:19:17;98029.28;;;28.84
15360;BMP280;7779;49.596;11.070;2023-07-20T10:21:57;98024.94;;;28.86
15360;BMP280;7779;49.596;11.070;2023-07-20T10:24:26;98026.56;;;28.90
15360;BMP280;7779;49.596;11.070;2023-07-20T10:26:55;98016.16;;;28.95
15360;BMP280;7779;49.596;11.070;2023-07-20T10:29:22;98017.75;;;29.00
15360;BMP280;7779;49.596;11.070;2023-07-20T10:31:49;98015.88;;;29.08
15360;BMP280;7779;49.596;11.070;2023-07-20T10:34:16;98015.72;;;29.17
15360;BMP280;7779;49.596;11.070;2023-07-20T10:36:46;98011.97;;;29.30
15360;BMP280;7779;49.596;11.070;2023-07-20T10:39:25;98013.25;;;29.49
15360;BMP280;7779;49.596;11.070;2023-07-20T10:42:01;98012.72;;;29.71
15360;BMP280;7779;49.596;11.070;2023-07-20T10:44:29;98004.66;;;29.84
15360;BMP280;7779;49.596;11.070;2023-07-20T10:47:06;98000.00;;;29.98
15360;BMP280;7779;49.596;11.070;2023-07-20T10:49:34;98002.28;;;30.10
15360;BMP280;7779;49.596;11.070;2023-07-20T10:52:05;97989.88;;;30.22
15360;BMP280;7779;49.596;11.070;2023-07-20T10:57:21;97985.06;;;30.42
15360;BMP280;7779;49.596;11.070;2023-07-20T10:59:47;97994.56;;;30.41
15360;BMP280;7779;49.596;11.070;2023-07-20T11:02:18;97989.41;;;30.41
15360;BMP280;7779;49.596;11.070;2023-07-20T11:04:47;97994.56;;;30.41
15360;BMP280;7779;49.596;11.070;2023-07-20T11:07:23;97991.19;;;30.39
15360;BMP280;7779;49.596;11.070;2023-07-20T11:10:15;97985.28;;;30.34
15360;BMP280;7779;49.596;11.070;2023-07-20T11:18:26;97981.84;;;30.01
15360;BMP280;7779;49.596;11.070;2023-07-20T11:20:53;97981.13;;;29.96
15360;BMP280;7779;49.596;11.070;2023-07-20T11:23:22;97988.97;;;29.91
15360;BMP280;7779;49.596;11.070;2023-07-20T11:25:48;97989.09;;;29.87
15360;BMP280;7779;49.596;11.070;2023-07-20T11:28:15;97995.25;;;29.83
15360;BMP280;7779;49.596;11.070;2023-07-20T11:30:41;97982.47;;;29.77
15360;BMP280;7779;49.596;11.070;2023-07-20T11:33:10;97985.13;;;29.74
15360;BMP280;7779;49.596;11.070;2023-07-20T11:35:45;97992.06;;;29.71
15360;BMP280;7779;49.596;11.070;2023-07-20T11:38:14;97982.69;;;29.67
15360;BMP280;7779;49.596;11.070;2023-07-20T11:40:47;97982.63;;;29.70
15360;BMP280;7779;49.596;11.070;2023-07-20T11:43:13;97986.09;;;29.69
15360;BMP280;7779;49.596;11.070;2023-07-20T11:45:39;97978.44;;;29.64
15360;BMP280;7779;49.596;11.070;2023-07-20T11:48:05;97975.94;;;29.61
15360;BMP280;7779;49.596;11.070;2023-07-20T11:50:31;97982.16;;;29.54
15360;BMP280;7779;49.596;11.070;2023-07-20T11:52:57;97979.69;;;29.49
15360;BMP280;7779;49.596;11.070;2023-07-20T11:55:23;97975.53;;;29.43
15360;BMP280;7779;49.596;11.070;2023-07-20T11:58:06;97972.09;;;29.43
15360;BMP280;7779;49.596;11.070;2023-07-20T12:00:34;97960.91;;;29.44
15360;BMP280;7779;49.596;11.070;2023-07-20T12:03:00;97956.59;;;29.44
15360;BMP280;7779;49.596;11.070;2023-07-20T12:05:26;97958.25;;;29.45
15360;BMP280;7779;49.596;11.070;2023-07-20T12:07:52;97951.41;;;29.46
15360;BMP280;7779;49.596;11.070;2023-07-20T12:10:28;97956.47;;;29.49
15360;BMP280;7779;49.596;11.070;2023-07-20T12:13:01;97951.19;;;29.54
15360;BMP280;7779;49.596;11.070;2023-07-20T12:15:29;97946.72;;;29.59
15360;BMP280;7779;49.596;11.070;2023-07-20T12:18:02;97946.69;;;29.61
15360;BMP280;7779;49.596;11.070;2023-07-20T12:20:34;97945.91;;;29.57
15360;BMP280;7779;49.596;11.070;2023-07-20T12:23:03;97948.59;;;29.54
15360;BMP280;7779;49.596;11.070;2023-07-20T12:25:51;97938.31;;;29.53
15360;BMP280;7779;49.596;11.070;2023-07-20T12:28:19;97942.69;;;29.50
15360;BMP280;7779;49.596;11.070;2023-07-20T12:30:46;97945.22;;;29.51
15360;BMP280;7779;49.596;11.070;2023-07-20T12:33:13;97947.75;;;29.52
15360;BMP280;7779;49.596;11.070;2023-07-20T12:35:41;97936.59;;;29.52
15360;BMP280;7779;49.596;11.070;2023-07-20T12:38:08;97942.56;;;29.54
15360;BMP280;7779;49.596;11.070;2023-07-20T12:40:34;97935.59;;;29.57
15360;BMP280;7779;49.596;11.070;2023-07-20T12:43:01;97931.97;;;29.64
15360;BMP280;7779;49.596;11.070;2023-07-20T12:45:27;97936.09;;;29.73
15360;BMP280;7779;49.596;11.070;2023-07-20T12:47:53;97938.50;;;29.80
15360;BMP280;7779;49.596;11.070;2023-07-20T12:50:19;97919.34;;;29.89
15360;BMP280;7779;49.596;11.070;2023-07-20T12:52:44;97916.47;;;29.97
15360;BMP280;7779;49.596;11.070;2023-07-20T12:55:10;97906.84;;;30.04
15360;BMP280;7779;49.596;11.070;2023-07-20T12:57:37;97915.41;;;30.06
15360;BMP280;7779;49.596;11.070;2023-07-20T13:00:06;97913.63;;;30.08
15360;BMP280;7779;49.596;11.070;2023-07-20T13:02:33;97914.38;;;30.11
15360;BMP280;7779;49.596;11.070;2023-07-20T13:04:59;97908.19;;;30.17
15360;BMP280;7779;49.596;11.070;2023-07-20T13:07:36;97907.22;;;30.21
15360;BMP280;7779;49.596;11.070;2023-07-20T13:10:04;97916.75;;;30.19
15360;BMP280;7779;49.596;11.070;2023-07-20T13:12:32;97916.88;;;30.16
15360;BMP280;7779;49.596;11.070;2023-07-20T13:14:58;97905.75;;;30.12
15360;BMP280;7779;49.596;11.070;2023-07-20T13:17:28;97908.38;;;30.11
15360;BMP280;7779;49.596;11.070;2023-07-20T13:19:55;97904.09;;;30.10
15360;BMP280;7779;49.596;11.070;2023-07-20T13:22:21;97910.06;;;30.12
15360;BMP280;7779;49.596;11.070;2023-07-20T13:24:47;97900.50;;;30.15
15360;BMP280;7779;49.596;11.070;2023-07-20T13:27:15;97899.47;;;30.21
15360;BMP280;7779;49.596;11.070;2023-07-20T13:29:41;97894.16;;;30.27
15360;BMP280;7779;49.596;11.070;2023-07-20T13:32:08;97887.13;;;30.31
15360;BMP280;7779;49.596;11.070;2023-07-20T13:34:34;97899.00;;;30.38
15360;BMP280;7779;49.596;11.070;2023-07-20T13:37:01;97883.41;;;30.41
15360;BMP280;7779;49.596;11.070;2023-07-20T13:39:27;97885.09;;;30.42
15360;BMP280;7779;49.596;11.070;2023-07-20T13:41:53;97886.75;;;30.45
15360;BMP280;7779;49.596;11.070;2023-07-20T13:44:20;97881.53;;;30.46
15360;BMP280;7779;49.596;11.070;2023-07-20T13:46:50;97886.59;;;30.49
15360;BMP280;7779;49.596;11.070;2023-07-20T13:49:16;97883.03;;;30.53
15360;BMP280;7779;49.596;11.070;2023-07-20T13:51:42;97889.84;;;30.57
15360;BMP280;7779;49.596;11.070;2023-07-20T13:54:08;97881.28;;;30.55
15360;BMP280;7779;49.596;11.070;2023-07-20T13:56:34;97876.19;;;30.52
15360;BMP280;7779;49.596;11.070;2023-07-20T13:59:00;97868.47;;;30.51
15360;BMP280;7779;49.596;11.070;2023-07-20T14:01:26;97877.22;;;30.47
15360;BMP280;7779;49.596;11.070;2023-07-20T14:03:54;97870.44;;;30.43
15360;BMP280;7779;49.596;11.070;2023-07-20T14:06:20;97865.31;;;30.41
15360;BMP280;7779;49.596;11.070;2023-07-20T14:08:45;97863.78;;;30.34
15360;BMP280;7779;49.596;11.070;2023-07-20T14:11:16;97863.88;;;30.31
15360;BMP280;7779;49.596;11.070;2023-07-20T14:13:42;97861.41;;;30.29
15360;BMP280;7779;49.596;11.070;2023-07-20T14:16:08;97852.81;;;30.27
15360;BMP280;7779;49.596;11.070;2023-07-20T14:18:35;97860.59;;;30.25
15360;BMP280;7779;49.596;11.070;2023-07-20T14:21:00;97863.28;;;30.21
15360;BMP280;7779;49.596;11.070;2023-07-20T14:23:29;97860.00;;;30.16
15360;BMP280;7779;49.596;11.070;2023-07-20T14:25:55;97856.72;;;30.11
15360;BMP280;7779;49.596;11.070;2023-07-20T14:28:21;97853.41;;;30.06